createdAt,value
2023-03-21T00:02:55.372Z,20.28
2023-03-21T00:09:00.254Z,20.30
2023-03-21T00:15:05.147Z,20.79
2023-03-21T00:21:39.234Z,20.89
2023-03-21T00:27:50.021Z,20.68
2023-03-21T00:33:51.395Z,20.16
2023-03-21T00:39:53.535Z,19.86
2023-03-21T00:45:57.732Z,20.02
2023-03-21T00:52:14.733Z,19.99
2023-03-21T00:58:18.617Z,19.92
2023-03-21T01:04:20.576Z,19.85
2023-03-21T01:10:22.893Z,19.63
2023-03-21T01:16:24.781Z,19.81
2023-03-21T01:22:27.307Z,20.07
2023-03-21T01:28:29.670Z,20.16
2023-03-21T01:34:31.628Z,20.20
2023-03-21T01:40:33.301Z,20.07
2023-03-21T01:47:12.132Z,20.07
2023-03-21T01:53:22.074Z,20.16
2023-03-21T01:59:43.515Z,20.11
2023-03-21T02:06:29.534Z,19.96
2023-03-21T02:12:32.686Z,19.90
2023-03-21T02:18:45.408Z,19.83
2023-03-21T02:25:48.832Z,19.82
2023-03-21T02:32:36.646Z,19.75
2023-03-21T02:39:00.615Z,19.89
2023-03-21T02:45:19.074Z,19.91
2023-03-21T02:51:27.151Z,19.84
2023-03-21T02:57:40.074Z,19.75
2023-03-21T03:03:45.152Z,19.27
2023-03-21T03:10:14.662Z,19.42
2023-03-21T03:16:28.069Z,19.57
2023-03-21T03:22:43.842Z,19.34
2023-03-21T03:28:48.719Z,18.99
2023-03-21T03:34:55.639Z,19.00
2023-03-21T03:41:19.323Z,19.24
2023-03-21T03:47:57.196Z,18.60
2023-03-21T03:54:05.994Z,18.98
2023-03-21T04:00:12.426Z,19.01
2023-03-21T04:06:21.380Z,18.88
2023-03-21T04:12:24.941Z,18.78
2023-03-21T04:18:58.601Z,18.87
2023-03-21T04:25:04.635Z,18.87
2023-03-21T04:31:24.362Z,19.02
2023-03-21T04:37:27.846Z,18.91
2023-03-21T04:43:30.294Z,18.71
2023-03-21T04:49:35.657Z,18.77
2023-03-21T04:55:40.248Z,18.64
2023-03-21T05:01:43.269Z,18.90
2023-03-21T05:07:44.955Z,19.13
2023-03-21T05:13:51.882Z,18.97
2023-03-21T05:19:59.729Z,18.97
2023-03-21T05:26:01.745Z,19.09
2023-03-21T05:32:26.125Z,19.16
2023-03-21T05:38:27.791Z,19.09
2023-03-21T05:44:29.932Z,19.16
2023-03-21T05:50:32.709Z,19.46
2023-03-21T05:56:42.243Z,19.50
2023-03-21T06:02:47.025Z,19.74
2023-03-21T06:09:07.022Z,19.48
2023-03-21T06:15:09.272Z,19.47
2023-03-21T06:21:20.038Z,19.69
2023-03-21T06:27:23.266Z,19.84
2023-03-21T06:33:27.675Z,20.11
2023-03-21T06:39:30.624Z,20.07
2023-03-21T06:45:32.040Z,20.03
2023-03-21T06:51:34.176Z,20.53
2023-03-21T06:57:45.508Z,20.44
2023-03-21T07:03:47.679Z,20.80
2023-03-21T07:09:49.745Z,21.07
2023-03-21T07:15:52.958Z,21.31
2023-03-21T07:21:54.769Z,21.72
2023-03-21T07:27:56.280Z,21.77
2023-03-21T07:33:57.816Z,22.27
2023-03-21T07:39:59.674Z,22.56
2023-03-21T07:46:01.555Z,22.47
2023-03-21T07:52:04.885Z,22.24
2023-03-21T07:58:06.561Z,22.65
2023-03-21T08:04:08.045Z,22.89
2023-03-21T08:10:11.215Z,23.29
2023-03-21T08:16:12.723Z,23.95
2023-03-21T08:22:14.212Z,23.40
2023-03-21T08:28:15.719Z,22.76
2023-03-21T08:34:17.406Z,21.47
2023-03-21T08:40:20.259Z,21.68
2023-03-21T08:46:21.782Z,21.38
2023-03-21T08:52:23.214Z,21.31
2023-03-21T08:58:25.009Z,21.38
2023-03-21T09:04:26.885Z,21.48
2023-03-21T09:10:29.053Z,21.71
2023-03-21T09:16:30.988Z,21.91
2023-03-21T09:22:33.056Z,22.63
2023-03-21T09:28:36.859Z,22.16
2023-03-21T09:34:40.742Z,22.36
2023-03-21T09:41:12.574Z,21.87
2023-03-21T09:47:28.412Z,22.12
2023-03-21T09:53:35.333Z,21.97
2023-03-21T09:59:39.555Z,21.88
2023-03-21T10:05:43.959Z,21.57
2023-03-21T10:11:49.726Z,21.26
2023-03-21T10:17:56.323Z,21.74
2023-03-21T10:23:59.864Z,22.15
2023-03-21T10:30:05.306Z,21.93
2023-03-21T10:36:29.461Z,21.87
2023-03-21T10:42:33.228Z,21.90
2023-03-21T10:48:37.194Z,22.07
2023-03-21T10:54:38.804Z,21.93
2023-03-21T11:00:41.122Z,22.11
2023-03-21T11:06:46.226Z,21.99
2023-03-21T11:12:48.129Z,22.50
2023-03-21T11:18:51.369Z,22.72
2023-03-21T11:24:58.348Z,22.32
2023-03-21T11:31:02.125Z,22.32
2023-03-21T11:37:03.734Z,23.11
2023-03-21T11:43:17.476Z,23.27
2023-03-21T11:49:19.963Z,23.27
2023-03-21T11:55:37.039Z,22.69
2023-03-21T12:02:03.796Z,21.92
2023-03-21T12:08:12.814Z,21.41
2023-03-21T12:14:39.277Z,22.19
2023-03-21T12:20:54.506Z,22.58
2023-03-21T12:27:13.777Z,22.92
2023-03-21T12:33:47.988Z,22.42
2023-03-21T12:39:50.039Z,21.52
2023-03-21T12:45:57.256Z,21.89
2023-03-21T12:52:23.777Z,21.90
2023-03-21T12:58:30.798Z,22.09
2023-03-21T13:04:42.718Z,22.38
2023-03-21T13:10:45.583Z,21.77
2023-03-21T13:16:55.241Z,22.13
2023-03-21T13:22:57.086Z,22.52
2023-03-21T13:29:00.635Z,22.72
2023-03-21T13:35:14.856Z,22.67
2023-03-21T13:41:40.062Z,22.50
2023-03-21T13:47:54.477Z,22.58
2023-03-21T13:54:01.430Z,22.90
2023-03-21T14:00:25.546Z,22.21
2023-03-21T14:06:39.221Z,21.35
2023-03-21T14:12:42.264Z,21.68
2023-03-21T14:18:54.973Z,21.63
2023-03-21T14:24:59.793Z,21.62
2023-03-21T14:31:01.954Z,21.04
2023-03-21T14:37:07.190Z,20.61
2023-03-21T14:43:10.964Z,21.14
2023-03-21T14:49:25.631Z,20.89
2023-03-21T14:55:27.185Z,20.75
2023-03-21T15:01:31.850Z,21.04
2023-03-21T15:07:34.278Z,21.54
2023-03-21T15:13:40.047Z,21.90
2023-03-21T15:19:43.157Z,21.38
2023-03-21T15:25:44.972Z,21.25
2023-03-21T15:31:47.807Z,21.23
2023-03-21T15:37:55.042Z,21.34
2023-03-21T15:44:08.696Z,21.38
2023-03-21T15:50:24.483Z,21.38
2023-03-21T15:56:34.229Z,21.38
2023-03-21T16:02:36.008Z,20.73
2023-03-21T16:08:42.227Z,20.69
2023-03-21T16:14:43.760Z,20.54
2023-03-21T16:20:46.458Z,20.42
2023-03-21T16:26:51.475Z,20.37
2023-03-21T16:32:53.449Z,20.35
2023-03-21T16:38:55.502Z,20.39
2023-03-21T16:44:57.105Z,20.16
2023-03-21T16:51:00.017Z,20.18
2023-03-21T16:57:03.838Z,19.90
2023-03-21T17:03:13.665Z,19.88
2023-03-21T17:09:18.911Z,20.09
2023-03-21T17:15:21.122Z,20.01
2023-03-21T17:21:26.061Z,19.77
2023-03-21T17:27:27.913Z,19.57
2023-03-21T17:33:30.275Z,19.49
2023-03-21T17:39:32.439Z,19.28
2023-03-21T17:45:33.925Z,19.18
2023-03-21T17:51:36.046Z,19.63
2023-03-21T17:57:38.011Z,19.82
2023-03-21T18:03:40.138Z,19.80
2023-03-21T18:09:41.775Z,19.75
2023-03-21T18:15:45.049Z,19.55
2023-03-21T18:21:47.395Z,19.40
2023-03-21T18:28:09.478Z,19.22
2023-03-21T18:34:10.652Z,19.06
2023-03-21T18:40:13.276Z,19.24
2023-03-21T18:46:15.724Z,19.15
2023-03-21T18:52:17.541Z,19.05
2023-03-21T18:58:19.370Z,19.21
2023-03-21T19:04:28.747Z,19.05
2023-03-21T19:10:31.602Z,18.97
2023-03-21T19:16:50.724Z,18.99
2023-03-21T19:22:55.736Z,18.89
2023-03-21T19:28:57.286Z,18.94
2023-03-21T19:34:58.808Z,18.96
2023-03-21T19:41:01.239Z,18.89
2023-03-21T19:47:04.150Z,18.83
2023-03-21T19:53:06.419Z,18.87
2023-03-21T19:59:08.552Z,18.92
2023-03-21T20:05:11.343Z,18.91
2023-03-21T20:11:14.670Z,18.87
2023-03-21T20:17:18.830Z,18.79
2023-03-21T20:23:20.613Z,18.77
2023-03-21T20:30:08.177Z,18.71
2023-03-21T20:36:29.498Z,18.78
2023-03-21T20:42:07.061Z,18.83
2023-03-21T20:48:08.700Z,18.93
2023-03-21T20:54:10.644Z,18.68
2023-03-21T21:00:16.265Z,18.59
2023-03-21T21:06:21.768Z,18.69
2023-03-21T21:12:27.131Z,18.57
2023-03-21T21:18:29.652Z,18.38
2023-03-21T21:24:31.423Z,18.41
2023-03-21T21:30:37.360Z,18.33
2023-03-21T21:36:46.528Z,18.40
2023-03-21T21:42:48.852Z,18.52
2023-03-21T21:48:50.400Z,18.66
2023-03-21T21:54:51.870Z,18.58
2023-03-21T22:00:58.298Z,18.82
2023-03-21T22:07:01.696Z,18.64
2023-03-21T22:13:06.334Z,18.52
2023-03-21T22:19:07.788Z,18.79
2023-03-21T22:25:12.306Z,18.59
2023-03-21T22:31:15.594Z,18.56
2023-03-21T22:37:17.078Z,18.49
2023-03-21T22:43:18.622Z,18.41
2023-03-21T22:49:20.062Z,18.35
2023-03-21T22:55:21.577Z,18.34
2023-03-21T23:01:23.145Z,18.50
2023-03-21T23:07:24.631Z,18.37
2023-03-21T23:13:27.360Z,18.36
2023-03-21T23:19:29.238Z,18.18
2023-03-21T23:25:32.983Z,18.16
2023-03-21T23:31:35.135Z,18.39
2023-03-21T23:37:36.781Z,18.27
2023-03-21T23:43:38.426Z,18.19
2023-03-21T23:49:40.173Z,18.16
2023-03-21T23:55:42.166Z,18.17
